Time;durP1;ratioP1;P1;durP2;ratioP2;P2;SDS_P1;SDS_P2;PMS_P1;PMS_P2;Temp;Humidity;BMP_temperature;BMP_pressure;BME280_temperature;BME280_humidity;BME280_pressure;Samples;Min_cycle;Max_cycle;Signal;HPM_P1;HPM_P2
2023/04/17 00:00:29;;;;;;;5.80;1.80;;;;;;;;;;5114265;28;20917;-74
2023/04/17 00:02:56;;;;;;;2.93;2.43;;;;;;;;;;5113887;28;21045;-74
2023/04/17 00:05:25;;;;;;;10.10;2.30;;;;;;;;;;5113871;28;20454;-75
2023/04/17 00:07:53;;;;;;;5.30;3.90;;;;;;;;;;5113873;28;20450;-74
2023/04/17 00:10:21;;;;;;;3.60;2.53;;;;;;;;;;5114018;28;20499;-74
2023/04/17 00:12:48;;;;;;;2.30;1.90;;;;;;;;;;5114207;28;20492;-74
2023/04/17 00:15:16;;;;;;;1.90;1.70;;;;;;;;;;5114075;28;20469;-74
2023/04/17 00:17:43;;;;;;;2.57;2.17;;;;;;;;;;5113756;28;20454;-74
2023/04/17 00:20:10;;;;;;;3.30;2.00;;;;;;;;;;5113900;28;20460;-74
2023/04/17 00:22:37;;;;;;;2.73;1.90;;;;;;;;;;5113507;28;20474;-74
2023/04/17 00:25:04;;;;;;;2.10;1.87;;;;;;;;;;5113624;28;20450;-74
2023/04/17 00:27:33;;;;;;;3.47;2.10;;;;;;;;;;5113749;28;20459;-74
2023/04/17 00:30:00;;;;;;;2.90;2.03;;;;;;;;;;5116401;28;20457;-74
2023/04/17 00:32:27;;;;;;;2.57;2.27;;;;;;;;;;5117841;28;20476;-74
2023/04/17 00:34:54;;;;;;;2.00;1.80;;;;;;;;;;5118073;28;20489;-74
2023/04/17 00:37:21;;;;;;;2.43;1.83;;;;;;;;;;5117747;28;20453;-73
2023/04/17 00:39:48;;;;;;;2.50;1.90;;;;;;;;;;5118110;28;20437;-74
2023/04/17 00:42:15;;;;;;;3.10;2.10;;;;;;;;;;5117570;28;20472;-74
2023/04/17 00:44:44;;;;;;;2.50;2.00;;;;;;;;;;5117443;28;20823;-74
2023/04/17 00:47:11;;;;;;;2.37;2.07;;;;;;;;;;5117557;28;20819;-74
2023/04/17 00:49:38;;;;;;;3.33;2.17;;;;;;;;;;5117253;28;20457;-74
2023/04/17 00:52:06;;;;;;;2.40;2.17;;;;;;;;;;5116796;28;21009;-73
2023/04/17 00:54:33;;;;;;;3.33;2.33;;;;;;;;;;5117062;27;20488;-74
2023/04/17 00:57:01;;;;;;;1.70;1.60;;;;;;;;;;5117315;28;20532;-74
2023/04/17 00:59:29;;;;;;;2.43;2.20;;;;;;;;;;5117221;28;20487;-74
2023/04/17 01:01:57;;;;;;;2.73;1.93;;;;;;;;;;5117249;28;20466;-74
2023/04/17 01:04:25;;;;;;;1.90;1.70;;;;;;;;;;5116748;28;20454;-74
2023/04/17 01:06:53;;;;;;;5.43;2.13;;;;;;;;;;5117368;28;20537;-74
2023/04/17 01:09:20;;;;;;;2.00;1.77;;;;;;;;;;5117068;28;20453;-74
2023/04/17 01:11:47;;;;;;;2.70;2.33;;;;;;;;;;5117095;28;20826;-74
2023/04/17 01:14:15;;;;;;;2.43;2.23;;;;;;;;;;5116935;28;20456;-73
2023/04/17 01:16:43;;;;;;;2.30;2.10;;;;;;;;;;5116918;28;20456;-74
2023/04/17 01:19:14;;;;;;;3.23;2.73;;;;;;;;;;5116584;28;20460;-74
2023/04/17 01:21:41;;;;;;;5.53;2.90;;;;;;;;;;5116874;27;20485;-74
2023/04/17 01:24:10;;;;;;;3.20;2.70;;;;;;;;;;5116568;28;20451;-74
2023/04/17 01:26:37;;;;;;;3.67;3.20;;;;;;;;;;5116599;28;20445;-74
2023/04/17 01:29:05;;;;;;;4.47;3.10;;;;;;;;;;5116598;28;20457;-75
2023/04/17 01:31:32;;;;;;;5.20;2.87;;;;;;;;;;5116395;28;20529;-75
2023/04/17 01:34:00;;;;;;;4.90;3.77;;;;;;;;;;5116358;28;20446;-74
2023/04/17 01:36:27;;;;;;;3.70;3.40;;;;;;;;;;5116273;28;20550;-75
2023/04/17 01:38:54;;;;;;;3.77;2.90;;;;;;;;;;5116308;28;20518;-74
2023/04/17 01:41:23;;;;;;;4.40;3.07;;;;;;;;;;5116476;28;20950;-74
2023/04/17 01:43:50;;;;;;;3.87;3.50;;;;;;;;;;5116210;27;20456;-74
2023/04/17 01:46:17;;;;;;;7.83;3.33;;;;;;;;;;5116246;28;20965;-74
2023/04/17 01:48:45;;;;;;;5.00;4.20;;;;;;;;;;5116241;28;20532;-74
2023/04/17 01:51:12;;;;;;;3.37;3.07;;;;;;;;;;5116230;28;20453;-74
2023/04/17 01:53:40;;;;;;;3.80;3.30;;;;;;;;;;5115628;28;20457;-74
2023/04/17 01:56:07;;;;;;;4.00;3.47;;;;;;;;;;5116132;28;20485;-74
2023/04/17 01:58:36;;;;;;;3.73;3.33;;;;;;;;;;5115960;28;20464;-74
2023/04/17 02:01:03;;;;;;;3.50;3.20;;;;;;;;;;5116079;28;20824;-74
2023/04/17 02:03:30;;;;;;;3.60;3.30;;;;;;;;;;5115734;28;20461;-73
2023/04/17 02:05:57;;;;;;;3.67;3.37;;;;;;;;;;5115876;28;20477;-74
2023/04/17 02:08:25;;;;;;;5.07;3.50;;;;;;;;;;5115781;28;20450;-74
2023/04/17 02:10:53;;;;;;;4.10;3.70;;;;;;;;;;5115793;28;20837;-74
2023/04/17 02:13:20;;;;;;;3.30;3.00;;;;;;;;;;5115582;28;20470;-74
2023/04/17 02:15:48;;;;;;;3.77;3.47;;;;;;;;;;5115438;28;20485;-74
2023/04/17 02:18:15;;;;;;;4.27;3.53;;;;;;;;;;5115725;27;20445;-74
2023/04/17 02:20:43;;;;;;;3.43;3.03;;;;;;;;;;5115609;27;20930;-74
2023/04/17 02:23:11;;;;;;;3.83;3.40;;;;;;;;;;5115566;28;20476;-74
2023/04/17 02:25:38;;;;;;;3.43;3.13;;;;;;;;;;5115744;28;20456;-74
2023/04/17 02:28:05;;;;;;;3.97;3.57;;;;;;;;;;5115495;28;20449;-74
2023/04/17 02:30:33;;;;;;;5.00;3.60;;;;;;;;;;5115386;28;20454;-73
2023/04/17 02:33:01;;;;;;;4.00;3.13;;;;;;;;;;5115390;28;20462;-74
2023/04/17 02:35:29;;;;;;;2.97;2.67;;;;;;;;;;5115180;28;20485;-74
2023/04/17 02:37:57;;;;;;;3.60;3.20;;;;;;;;;;5115318;28;20481;-74
2023/04/17 02:40:24;;;;;;;3.10;2.70;;;;;;;;;;5115195;28;20457;-74
2023/04/17 02:42:51;;;;;;;7.80;3.50;;;;;;;;;;5115279;28;20469;-74
2023/04/17 02:45:18;;;;;;;3.43;3.13;;;;;;;;;;5115061;28;20495;-74
2023/04/17 02:47:45;;;;;;;3.33;3.03;;;;;;;;;;5115024;28;20537;-74
2023/04/17 02:50:14;;;;;;;4.20;2.93;;;;;;;;;;5115041;28;20454;-74
2023/04/17 02:52:41;;;;;;;3.83;3.53;;;;;;;;;;5113931;28;20465;-74
2023/04/17 02:55:09;;;;;;;3.67;2.87;;;;;;;;;;5114726;28;20497;-74
2023/04/17 02:57:36;;;;;;;3.00;2.63;;;;;;;;;;5115045;28;20878;-74
2023/04/17 03:00:07;;;;;;;7.03;2.90;;;;;;;;;;5114951;28;20943;-74
2023/04/17 03:02:35;;;;;;;3.80;3.10;;;;;;;;;;5114848;28;20492;-74
2023/04/17 03:05:03;;;;;;;5.50;4.73;;;;;;;;;;5114602;28;20822;-74
2023/04/17 03:07:31;;;;;;;3.80;3.40;;;;;;;;;;5114611;28;20454;-74
2023/04/17 03:09:58;;;;;;;4.77;3.40;;;;;;;;;;5114948;27;20445;-74
2023/04/17 03:12:26;;;;;;;4.70;3.40;;;;;;;;;;5114449;28;20472;-74
2023/04/17 03:14:53;;;;;;;6.60;5.10;;;;;;;;;;5114755;28;20462;-74
2023/04/17 03:17:20;;;;;;;5.67;4.63;;;;;;;;;;5114735;28;20449;-74
2023/04/17 03:19:47;;;;;;;6.50;5.00;;;;;;;;;;5114613;28;20453;-74
2023/04/17 03:22:14;;;;;;;4.87;4.30;;;;;;;;;;5114452;28;20841;-73
2023/04/17 03:24:43;;;;;;;5.67;4.83;;;;;;;;;;5114372;28;20519;-74
2023/04/17 03:27:10;;;;;;;6.20;4.27;;;;;;;;;;5114630;28;20449;-74
2023/04/17 03:29:37;;;;;;;5.00;4.50;;;;;;;;;;5114766;28;20460;-74
2023/04/17 03:32:04;;;;;;;8.00;6.00;;;;;;;;;;5114552;28;20562;-74
2023/04/17 03:34:32;;;;;;;11.67;7.10;;;;;;;;;;5114611;28;20453;-74
2023/04/17 03:36:59;;;;;;;9.77;6.77;;;;;;;;;;5114670;28;20485;-74
2023/04/17 03:39:26;;;;;;;17.73;6.20;;;;;;;;;;5114471;28;20460;-72
2023/04/17 03:41:55;;;;;;;9.00;6.20;;;;;;;;;;5114102;28;20474;-72
2023/04/17 03:44:22;;;;;;;6.33;5.43;;;;;;;;;;5113864;28;20461;-71
2023/04/17 03:46:49;;;;;;;6.67;5.17;;;;;;;;;;5114046;28;20502;-71
2023/04/17 03:49:16;;;;;;;7.00;5.97;;;;;;;;;;5113929;28;20454;-72
2023/04/17 03:51:44;;;;;;;5.47;4.80;;;;;;;;;;5113946;28;20462;-71
2023/04/17 03:54:11;;;;;;;6.17;4.63;;;;;;;;;;5113235;28;20477;-72
2023/04/17 03:56:38;;;;;;;6.00;5.20;;;;;;;;;;5113890;28;20481;-71
2023/04/17 03:59:06;;;;;;;7.17;5.20;;;;;;;;;;5113950;28;20442;-71
2023/04/17 04:01:37;;;;;;;9.97;5.43;;;;;;;;;;5113670;28;20475;-72
2023/04/17 04:04:04;;;;;;;6.40;5.53;;;;;;;;;;5112662;28;20536;-72
2023/04/17 04:06:31;;;;;;;6.83;5.70;;;;;;;;;;5113577;28;20454;-71
2023/04/17 04:08:58;;;;;;;6.17;5.50;;;;;;;;;;5113642;28;20519;-72
2023/04/17 04:11:25;;;;;;;6.13;5.53;;;;;;;;;;5113509;28;20466;-72
2023/04/17 04:13:53;;;;;;;6.27;5.30;;;;;;;;;;5113538;28;20485;-72
2023/04/17 04:16:21;;;;;;;6.43;5.83;;;;;;;;;;5113541;28;21022;-72
2023/04/17 04:18:48;;;;;;;5.30;4.57;;;;;;;;;;5113750;28;20955;-72
2023/04/17 04:21:15;;;;;;;8.50;5.40;;;;;;;;;;5113443;28;20527;-72
2023/04/17 04:23:44;;;;;;;4.13;3.73;;;;;;;;;;5113621;28;20446;-72
2023/04/17 04:26:11;;;;;;;5.90;4.83;;;;;;;;;;5113472;28;20506;-71
2023/04/17 04:28:38;;;;;;;5.13;4.53;;;;;;;;;;5113499;28;20466;-72
2023/04/17 04:31:05;;;;;;;5.17;4.63;;;;;;;;;;5112780;28;20986;-72
2023/04/17 04:33:34;;;;;;;8.00;5.13;;;;;;;;;;5113063;28;20461;-71
2023/04/17 04:36:01;;;;;;;4.40;4.00;;;;;;;;;;5113178;28;20481;-73
2023/04/17 04:38:32;;;;;;;4.90;4.30;;;;;;;;;;5113582;28;20450;-74
2023/04/17 04:41:04;;;;;;;9.40;6.53;;;;;;;;;;5113417;28;20468;-74
2023/04/17 04:43:32;;;;;;;6.37;4.90;;;;;;;;;;5113456;28;21062;-74
2023/04/17 04:45:59;;;;;;;4.43;3.87;;;;;;;;;;5113074;28;20839;-74
2023/04/17 04:48:27;;;;;;;4.83;4.33;;;;;;;;;;5108901;28;20541;-74
2023/04/17 04:50:56;;;;;;;10.50;5.13;;;;;;;;;;5113402;28;20515;-74
2023/04/17 04:53:23;;;;;;;7.33;4.63;;;;;;;;;;5112693;28;20476;-74
2023/04/17 04:55:50;;;;;;;5.00;4.33;;;;;;;;;;5112879;28;20488;-74
2023/04/17 04:58:18;;;;;;;7.60;4.97;;;;;;;;;;5113015;28;20449;-74
2023/04/17 05:00:45;;;;;;;6.60;5.30;;;;;;;;;;5113269;28;20454;-74
2023/04/17 05:03:12;;;;;;;7.33;5.90;;;;;;;;;;5113071;28;20466;-74
2023/04/17 05:05:40;;;;;;;8.37;6.20;;;;;;;;;;5113246;28;20441;-74
2023/04/17 05:08:09;;;;;;;5.73;4.47;;;;;;;;;;5113070;28;20445;-74
2023/04/17 05:10:36;;;;;;;6.23;5.60;;;;;;;;;;5113301;28;20449;-74
2023/04/17 05:13:03;;;;;;;6.37;4.70;;;;;;;;;;5113038;28;20469;-74
2023/04/17 05:15:30;;;;;;;7.20;5.40;;;;;;;;;;5114196;28;20449;-74
2023/04/17 05:17:57;;;;;;;4.77;4.37;;;;;;;;;;5116847;28;20453;-74
2023/04/17 05:20:25;;;;;;;6.47;4.97;;;;;;;;;;5116736;28;20946;-74
2023/04/17 05:22:53;;;;;;;9.10;6.67;;;;;;;;;;5116726;28;20526;-74
2023/04/17 05:25:21;;;;;;;5.50;4.80;;;;;;;;;;5116975;28;20464;-75
2023/04/17 05:27:48;;;;;;;4.73;4.33;;;;;;;;;;5116733;28;20926;-75
2023/04/17 05:30:16;;;;;;;13.90;9.93;;;;;;;;;;5116683;28;20452;-74
2023/04/17 05:32:43;;;;;;;5.27;4.77;;;;;;;;;;5116620;28;20466;-75
2023/04/17 05:35:10;;;;;;;5.40;4.50;;;;;;;;;;5116376;28;20544;-74
2023/04/17 05:37:37;;;;;;;4.80;3.90;;;;;;;;;;5116412;28;20489;-75
2023/04/17 05:40:05;;;;;;;36.47;18.17;;;;;;;;;;5116430;28;20449;-74
2023/04/17 05:42:34;;;;;;;88.10;36.20;;;;;;;;;;5116148;28;20524;-75
2023/04/17 05:45:01;;;;;;;67.93;31.13;;;;;;;;;;5116069;28;20460;-75
2023/04/17 05:47:29;;;;;;;39.23;19.83;;;;;;;;;;5116143;28;20445;-75
2023/04/17 05:49:57;;;;;;;21.47;13.47;;;;;;;;;;5116259;28;20526;-75
2023/04/17 05:52:24;;;;;;;8.67;6.40;;;;;;;;;;5116067;28;20990;-76
2023/04/17 05:54:52;;;;;;;8.93;6.37;;;;;;;;;;5116378;28;20804;-76
2023/04/17 05:57:19;;;;;;;7.00;6.00;;;;;;;;;;5116214;28;20850;-76
2023/04/17 05:59:48;;;;;;;8.63;6.60;;;;;;;;;;5116387;28;20499;-76
2023/04/17 06:02:16;;;;;;;7.53;6.00;;;;;;;;;;5116189;27;20879;-76
2023/04/17 06:04:43;;;;;;;6.20;5.17;;;;;;;;;;5115722;28;20457;-76
2023/04/17 06:07:10;;;;;;;5.80;4.80;;;;;;;;;;5115844;28;20488;-75
2023/04/17 06:09:38;;;;;;;9.53;5.80;;;;;;;;;;5115887;28;20537;-76
2023/04/17 06:12:05;;;;;;;9.70;7.37;;;;;;;;;;5116028;28;20466;-75
2023/04/17 06:14:32;;;;;;;5.37;4.37;;;;;;;;;;5116069;27;20911;-75
2023/04/17 06:17:01;;;;;;;6.40;4.90;;;;;;;;;;5115735;28;20493;-75
2023/04/17 06:19:28;;;;;;;6.30;5.67;;;;;;;;;;5115937;28;20449;-75
2023/04/17 06:21:55;;;;;;;7.63;6.27;;;;;;;;;;5115995;28;20470;-75
2023/04/17 06:24:22;;;;;;;5.70;4.90;;;;;;;;;;5115685;28;20448;-75
2023/04/17 06:26:49;;;;;;;7.77;5.00;;;;;;;;;;5114663;28;20454;-75
2023/04/17 06:29:17;;;;;;;8.93;6.47;;;;;;;;;;5114147;28;20429;-75
2023/04/17 06:31:44;;;;;;;5.73;5.00;;;;;;;;;;5114578;28;20480;-75
2023/04/17 06:34:12;;;;;;;5.83;5.23;;;;;;;;;;5114315;28;20460;-75
2023/04/17 06:36:40;;;;;;;8.40;5.67;;;;;;;;;;5114426;28;20488;-75
2023/04/17 06:39:07;;;;;;;5.20;4.70;;;;;;;;;;5114625;28;20939;-75
2023/04/17 06:41:34;;;;;;;5.17;4.50;;;;;;;;;;5114409;28;20477;-75
2023/04/17 06:44:01;;;;;;;5.90;5.30;;;;;;;;;;5113802;27;20448;-75
2023/04/17 06:46:28;;;;;;;6.93;4.80;;;;;;;;;;5114105;28;20613;-75
2023/04/17 06:48:58;;;;;;;5.10;4.53;;;;;;;;;;5114284;28;20578;-75
2023/04/17 06:51:28;;;;;;;9.60;7.00;;;;;;;;;;5113928;28;20513;-75
2023/04/17 06:53:55;;;;;;;5.10;4.60;;;;;;;;;;5114103;28;20953;-75
2023/04/17 06:56:23;;;;;;;5.90;4.60;;;;;;;;;;5113991;28;20560;-76
2023/04/17 06:58:50;;;;;;;6.40;4.90;;;;;;;;;;5114112;28;20453;-75
2023/04/17 07:01:17;;;;;;;6.83;5.20;;;;;;;;;;5113895;28;20457;-76
2023/04/17 07:03:44;;;;;;;6.27;4.90;;;;;;;;;;5114171;28;20453;-75
2023/04/17 07:06:11;;;;;;;10.23;6.90;;;;;;;;;;5114186;28;20819;-75
2023/04/17 07:08:40;;;;;;;12.33;7.13;;;;;;;;;;5113599;28;20442;-75
2023/04/17 07:11:07;;;;;;;13.07;7.90;;;;;;;;;;5113797;28;20525;-75
2023/04/17 07:13:34;;;;;;;15.37;8.13;;;;;;;;;;5113624;28;20449;-75
2023/04/17 07:16:02;;;;;;;10.97;7.07;;;;;;;;;;5113887;28;20475;-75
2023/04/17 07:18:29;;;;;;;12.33;7.70;;;;;;;;;;5113538;28;20497;-75
2023/04/17 07:20:56;;;;;;;12.77;7.90;;;;;;;;;;5113522;28;20449;-75
2023/04/17 07:23:24;;;;;;;13.20;7.80;;;;;;;;;;5113307;28;20473;-75
2023/04/17 07:25:52;;;;;;;13.93;7.53;;;;;;;;;;5113253;28;20449;-75
2023/04/17 07:28:20;;;;;;;15.00;7.80;;;;;;;;;;5113494;28;20529;-76
2023/04/17 07:30:47;;;;;;;14.60;7.90;;;;;;;;;;5113108;28;20545;-75
2023/04/17 07:33:14;;;;;;;11.37;7.47;;;;;;;;;;5113055;28;20485;-76
2023/04/17 07:35:41;;;;;;;14.60;8.67;;;;;;;;;;5114200;28;20454;-75
2023/04/17 07:38:08;;;;;;;16.80;10.10;;;;;;;;;;5113960;27;20524;-75
2023/04/17 07:40:36;;;;;;;16.53;9.90;;;;;;;;;;5114405;28;20798;-75
2023/04/17 07:43:05;;;;;;;13.50;8.30;;;;;;;;;;5114317;28;20474;-75
2023/04/17 07:45:32;;;;;;;16.80;9.90;;;;;;;;;;5113954;28;20481;-75
2023/04/17 07:48:00;;;;;;;22.40;10.60;;;;;;;;;;5114367;28;20489;-76
2023/04/17 07:50:27;;;;;;;20.33;11.27;;;;;;;;;;5113600;28;20446;-76
2023/04/17 07:52:54;;;;;;;26.67;12.23;;;;;;;;;;5113873;28;20469;-74
2023/04/17 07:55:21;;;;;;;24.80;11.90;;;;;;;;;;5114248;28;20460;-74
2023/04/17 07:57:50;;;;;;;16.37;10.10;;;;;;;;;;5114209;28;20492;-74
2023/04/17 08:00:20;;;;;;;17.97;10.23;;;;;;;;;;5114409;28;20446;-74
2023/04/17 08:02:48;;;;;;;21.50;10.73;;;;;;;;;;5114516;28;20477;-74
2023/04/17 08:05:15;;;;;;;22.37;10.90;;;;;;;;;;5113767;28;20453;-74
2023/04/17 08:07:42;;;;;;;20.30;12.63;;;;;;;;;;5114058;28;20450;-74
2023/04/17 08:10:10;;;;;;;16.07;9.83;;;;;;;;;;5114006;28;20449;-74
2023/04/17 08:12:37;;;;;;;16.47;9.37;;;;;;;;;;5113831;28;20560;-74
2023/04/17 08:15:04;;;;;;;19.10;10.60;;;;;;;;;;5113745;28;20518;-74
2023/04/17 08:17:33;;;;;;;22.40;13.37;;;;;;;;;;5113698;28;20538;-74
2023/04/17 08:20:01;;;;;;;19.23;10.93;;;;;;;;;;5113833;28;20961;-75
2023/04/17 08:22:28;;;;;;;17.90;10.70;;;;;;;;;;5113431;28;20478;-74
2023/04/17 08:24:57;;;;;;;17.80;9.90;;;;;;;;;;5113538;28;20467;-74
2023/04/17 08:27:24;;;;;;;16.23;9.37;;;;;;;;;;5113598;28;20818;-74
2023/04/17 08:29:52;;;;;;;16.53;10.33;;;;;;;;;;5113489;28;20442;-74
2023/04/17 08:32:20;;;;;;;15.00;9.30;;;;;;;;;;5113332;28;20470;-74
2023/04/17 08:34:49;;;;;;;17.27;9.37;;;;;;;;;;5113506;28;20942;-74
2023/04/17 08:37:16;;;;;;;19.50;9.53;;;;;;;;;;5113444;28;20997;-74
2023/04/17 08:39:43;;;;;;;14.90;9.70;;;;;;;;;;5113556;28;20496;-74
2023/04/17 08:42:11;;;;;;;20.93;11.03;;;;;;;;;;5114105;28;20565;-74
2023/04/17 08:44:38;;;;;;;14.70;8.80;;;;;;;;;;5113279;28;20591;-75
2023/04/17 08:47:08;;;;;;;12.67;9.83;;;;;;;;;;5113555;28;20852;-75
2023/04/17 08:49:36;;;;;;;15.60;8.80;;;;;;;;;;5113556;28;20450;-74
2023/04/17 08:52:06;;;;;;;15.00;9.33;;;;;;;;;;5117202;27;20484;-76
2023/04/17 08:54:35;;;;;;;14.63;9.10;;;;;;;;;;5117227;28;20458;-74
2023/04/17 08:57:03;;;;;;;18.00;9.40;;;;;;;;;;5117460;28;20485;-74
2023/04/17 08:59:31;;;;;;;18.23;11.00;;;;;;;;;;5117346;28;20873;-75
2023/04/17 09:02:01;;;;;;;19.47;10.33;;;;;;;;;;5117613;28;20483;-74
2023/04/17 09:04:36;;;;;;;14.77;8.80;;;;;;;;;;5117312;27;20461;-74
2023/04/17 09:07:03;;;;;;;14.20;9.00;;;;;;;;;;5117298;28;20444;-74
2023/04/17 09:09:45;;;;;;;15.17;9.37;;;;;;;;;;5117371;28;20449;-74
2023/04/17 09:12:14;;;;;;;16.37;8.73;;;;;;;;;;5117204;28;20504;-74
2023/04/17 09:14:42;;;;;;;14.00;8.30;;;;;;;;;;5117094;28;20788;-74
2023/04/17 09:17:09;;;;;;;14.50;8.73;;;;;;;;;;5117090;28;20485;-75
2023/04/17 09:19:39;;;;;;;13.77;8.03;;;;;;;;;;5116956;28;20544;-74
2023/04/17 09:22:19;;;;;;;15.53;9.90;;;;;;;;;;5116872;28;20522;-74
2023/04/17 09:24:47;;;;;;;14.90;10.03;;;;;;;;;;5116752;28;20522;-72
2023/04/17 09:27:22;;;;;;;14.00;9.03;;;;;;;;;;5116765;28;20461;-72
2023/04/17 09:30:02;;;;;;;18.37;10.60;;;;;;;;;;5116878;27;20445;-72
2023/04/17 09:32:30;;;;;;;13.40;8.50;;;;;;;;;;5117071;28;20981;-75
2023/04/17 09:34:58;;;;;;;14.80;8.60;;;;;;;;;;5117000;28;20449;-75
2023/04/17 09:37:26;;;;;;;13.53;8.17;;;;;;;;;;5117181;27;20492;-75
2023/04/17 09:40:00;;;;;;;11.43;7.60;;;;;;;;;;5117221;27;20522;-75
2023/04/17 09:42:28;;;;;;;14.43;8.93;;;;;;;;;;5116678;28;20509;-76
2023/04/17 09:44:56;;;;;;;17.40;9.43;;;;;;;;;;5116151;28;20514;-77
2023/04/17 09:47:24;;;;;;;13.47;8.77;;;;;;;;;;5116465;28;20454;-76
2023/04/17 09:49:52;;;;;;;14.23;9.57;;;;;;;;;;5116650;28;20442;-76
2023/04/17 09:52:23;;;;;;;10.30;7.00;;;;;;;;;;5116157;28;20478;-75
2023/04/17 09:54:52;;;;;;;14.70;9.93;;;;;;;;;;5116592;28;20511;-75
2023/04/17 09:57:20;;;;;;;17.83;10.70;;;;;;;;;;5116434;28;21186;-77
2023/04/17 09:59:48;;;;;;;11.97;8.67;;;;;;;;;;5116448;28;20900;-75
2023/04/17 10:02:16;;;;;;;11.90;7.67;;;;;;;;;;5114601;28;20473;-76
2023/04/17 10:04:44;;;;;;;12.47;7.80;;;;;;;;;;5116223;28;20969;-76
2023/04/17 10:07:12;;;;;;;14.60;8.47;;;;;;;;;;5116032;28;20445;-76
2023/04/17 10:09:40;;;;;;;13.57;7.60;;;;;;;;;;5116047;28;20467;-77
2023/04/17 10:12:11;;;;;;;9.40;6.83;;;;;;;;;;5116052;28;20502;-77
2023/04/17 10:14:39;;;;;;;11.70;7.40;;;;;;;;;;5115812;28;20450;-77
2023/04/17 10:17:21;;;;;;;12.50;8.07;;;;;;;;;;5116023;28;20453;-75
2023/04/17 10:19:50;;;;;;;11.43;7.90;;;;;;;;;;5115996;28;20429;-75
2023/04/17 10:22:30;;;;;;;16.17;10.03;;;;;;;;;;5115580;28;20464;-72
2023/04/17 10:25:16;;;;;;;14.70;8.60;;;;;;;;;;5115980;28;20456;-75
2023/04/17 10:27:45;;;;;;;11.53;8.03;;;;;;;;;;5115813;28;20446;-75
2023/04/17 10:30:12;;;;;;;17.43;9.20;;;;;;;;;;5115866;28;20454;-75
2023/04/17 10:32:40;;;;;;;21.27;12.60;;;;;;;;;;5115870;28;21185;-75
2023/04/17 10:35:22;;;;;;;17.23;11.23;;;;;;;;;;5115307;28;20877;-75
2023/04/17 10:38:04;;;;;;;16.67;10.20;;;;;;;;;;5115110;28;21045;-75
2023/04/17 10:40:32;;;;;;;20.57;11.17;;;;;;;;;;5115746;28;20490;-75
2023/04/17 10:43:07;;;;;;;239.23;88.40;;;;;;;;;;5115759;28;20474;-76
2023/04/17 10:45:53;;;;;;;75.93;34.57;;;;;;;;;;5114958;28;20534;-75
2023/04/17 10:48:22;;;;;;;15.77;9.63;;;;;;;;;;5115176;28;20453;-78
2023/04/17 10:50:49;;;;;;;108.43;44.80;;;;;;;;;;5115280;28;20938;-76
2023/04/17 10:53:35;;;;;;;40.50;18.73;;;;;;;;;;5114782;28;20841;-76
2023/04/17 10:56:07;;;;;;;13.93;8.83;;;;;;;;;;5115171;28;20942;-73
2023/04/17 10:58:37;;;;;;;10.10;7.90;;;;;;;;;;5114878;28;20516;-73
2023/04/17 11:01:09;;;;;;;19.67;12.40;;;;;;;;;;5115060;28;20458;-74
2023/04/17 11:03:37;;;;;;;14.30;9.70;;;;;;;;;;5114571;28;20458;-73
2023/04/17 11:06:04;;;;;;;13.20;10.93;;;;;;;;;;5114703;28;20457;-73
2023/04/17 11:08:32;;;;;;;12.13;9.77;;;;;;;;;;5114661;28;20442;-74
2023/04/17 11:10:59;;;;;;;12.60;10.00;;;;;;;;;;5114594;28;20441;-74
2023/04/17 11:13:32;;;;;;;12.07;10.40;;;;;;;;;;5113878;28;20476;-73
2023/04/17 11:16:00;;;;;;;19.77;14.00;;;;;;;;;;5114593;28;20938;-73
2023/04/17 11:18:27;;;;;;;16.33;13.27;;;;;;;;;;5114510;28;20474;-73
2023/04/17 11:20:56;;;;;;;11.53;9.60;;;;;;;;;;5114485;28;20943;-73
2023/04/17 11:23:23;;;;;;;10.37;8.73;;;;;;;;;;5114309;28;20512;-74
2023/04/17 11:25:50;;;;;;;9.77;8.80;;;;;;;;;;5114276;28;20457;-73
2023/04/17 11:28:17;;;;;;;10.37;8.67;;;;;;;;;;5114327;28;20453;-73
2023/04/17 11:30:46;;;;;;;11.07;7.70;;;;;;;;;;5114338;28;20527;-74
2023/04/17 11:33:14;;;;;;;9.93;8.67;;;;;;;;;;5114729;28;20458;-74
2023/04/17 11:35:42;;;;;;;10.43;9.40;;;;;;;;;;5113956;28;20454;-75
2023/04/17 11:38:16;;;;;;;9.37;8.37;;;;;;;;;;5114127;28;20492;-77
2023/04/17 11:40:47;;;;;;;7.63;6.37;;;;;;;;;;5114741;28;20464;-76
2023/04/17 11:43:14;;;;;;;7.00;6.40;;;;;;;;;;5114842;28;20476;-78
2023/04/17 11:45:43;;;;;;;7.10;6.40;;;;;;;;;;5114615;28;20485;-77
2023/04/17 11:48:12;;;;;;;8.70;6.77;;;;;;;;;;5114933;28;20461;-77
2023/04/17 11:50:40;;;;;;;5.90;5.30;;;;;;;;;;5114979;28;20492;-77
2023/04/17 11:53:07;;;;;;;6.53;5.93;;;;;;;;;;5114637;28;20477;-78
2023/04/17 11:55:35;;;;;;;5.67;5.00;;;;;;;;;;5114530;28;20450;-78
2023/04/17 11:58:04;;;;;;;5.60;5.03;;;;;;;;;;5115605;28;20485;-77
2023/04/17 12:00:31;;;;;;;5.60;5.10;;;;;;;;;;5114475;28;20449;-78
2023/04/17 12:03:00;;;;;;;6.13;5.50;;;;;;;;;;5113898;28;20458;-77
2023/04/17 12:05:29;;;;;;;4.97;3.93;;;;;;;;;;5114120;28;20526;-78
2023/04/17 12:08:00;;;;;;;6.60;5.03;;;;;;;;;;5113947;28;20446;-74
2023/04/17 12:10:36;;;;;;;6.20;5.60;;;;;;;;;;5113877;28;20499;-74
2023/04/17 12:13:04;;;;;;;6.77;6.07;;;;;;;;;;5113557;28;20473;-77
2023/04/17 12:15:31;;;;;;;5.97;5.37;;;;;;;;;;5113748;28;20537;-75
2023/04/17 12:18:01;;;;;;;5.70;5.20;;;;;;;;;;5113832;28;20454;-74
2023/04/17 12:20:30;;;;;;;7.00;6.40;;;;;;;;;;5113693;28;20470;-75
2023/04/17 12:22:57;;;;;;;6.63;6.03;;;;;;;;;;5113675;28;20514;-74
2023/04/17 12:25:24;;;;;;;5.83;5.23;;;;;;;;;;5112573;28;20545;-75
2023/04/17 12:27:52;;;;;;;6.50;5.43;;;;;;;;;;5113709;28;20458;-75
2023/04/17 12:30:19;;;;;;;5.30;4.80;;;;;;;;;;5113310;28;20496;-75
2023/04/17 12:32:47;;;;;;;5.67;4.97;;;;;;;;;;5113756;28;20986;-74
2023/04/17 12:35:15;;;;;;;6.33;5.27;;;;;;;;;;5113520;28;20457;-75
2023/04/17 12:37:47;;;;;;;4.50;4.10;;;;;;;;;;5113670;28;20470;-75
2023/04/17 12:40:15;;;;;;;6.37;5.77;;;;;;;;;;5113596;28;20441;-76
2023/04/17 12:42:42;;;;;;;6.07;5.57;;;;;;;;;;5113458;28;20531;-76
2023/04/17 12:45:10;;;;;;;5.27;4.77;;;;;;;;;;5113429;28;20500;-75
2023/04/17 12:47:37;;;;;;;5.03;4.53;;;;;;;;;;5113558;28;20440;-75
2023/04/17 12:50:05;;;;;;;5.30;4.50;;;;;;;;;;5113510;28;20876;-75
2023/04/17 12:52:34;;;;;;;5.00;4.50;;;;;;;;;;5113257;28;20462;-74
2023/04/17 12:55:03;;;;;;;8.23;4.90;;;;;;;;;;5113374;28;20457;-75
2023/04/17 12:57:30;;;;;;;6.27;5.70;;;;;;;;;;5113515;28;20454;-74
2023/04/17 12:59:57;;;;;;;6.13;5.53;;;;;;;;;;5113163;28;20489;-74
2023/04/17 13:02:25;;;;;;;7.90;7.00;;;;;;;;;;5112308;28;20478;-74
2023/04/17 13:04:52;;;;;;;9.20;8.13;;;;;;;;;;5113006;28;20818;-73
2023/04/17 13:07:20;;;;;;;9.00;8.10;;;;;;;;;;5113281;28;21032;-75
2023/04/17 13:09:47;;;;;;;7.50;6.43;;;;;;;;;;5113512;28;20441;-75
2023/04/17 13:12:16;;;;;;;7.90;7.10;;;;;;;;;;5113269;28;20970;-74
2023/04/17 13:14:43;;;;;;;7.67;6.93;;;;;;;;;;5113188;28;20515;-74
2023/04/17 13:17:10;;;;;;;6.53;5.93;;;;;;;;;;5113229;28;20454;-74
2023/04/17 13:19:38;;;;;;;6.20;5.60;;;;;;;;;;5112935;28;20486;-74
2023/04/17 13:22:06;;;;;;;7.40;6.60;;;;;;;;;;5112858;28;20488;-75
2023/04/17 13:24:35;;;;;;;8.03;6.73;;;;;;;;;;5112988;28;20893;-74
2023/04/17 13:27:03;;;;;;;7.30;6.43;;;;;;;;;;5112947;28;20854;-74
2023/04/17 13:29:31;;;;;;;7.73;6.97;;;;;;;;;;5112720;28;20514;-74
2023/04/17 13:31:58;;;;;;;7.80;6.27;;;;;;;;;;5112953;28;20465;-74
2023/04/17 13:34:25;;;;;;;6.83;6.23;;;;;;;;;;5112583;28;20453;-75
2023/04/17 13:36:53;;;;;;;7.80;7.00;;;;;;;;;;5115008;28;20884;-74
2023/04/17 13:39:20;;;;;;;6.90;6.20;;;;;;;;;;5116170;28;20617;-74
2023/04/17 13:41:48;;;;;;;8.00;6.63;;;;;;;;;;5116246;28;20481;-74
2023/04/17 13:44:16;;;;;;;9.37;7.10;;;;;;;;;;5116023;28;20463;-74
2023/04/17 13:46:45;;;;;;;6.90;6.20;;;;;;;;;;5116608;28;20944;-74
2023/04/17 13:49:12;;;;;;;6.60;6.00;;;;;;;;;;5116403;28;20450;-74
2023/04/17 13:51:39;;;;;;;6.67;6.07;;;;;;;;;;5116257;28;20472;-74
2023/04/17 13:54:08;;;;;;;7.47;6.20;;;;;;;;;;5116283;28;20453;-76
2023/04/17 13:56:35;;;;;;;6.77;5.63;;;;;;;;;;5116512;28;20445;-74
2023/04/17 13:59:04;;;;;;;7.10;6.37;;;;;;;;;;5116647;28;20489;-73
2023/04/17 14:01:31;;;;;;;6.70;6.10;;;;;;;;;;5116187;28;20548;-76
2023/04/17 14:04:00;;;;;;;6.40;5.80;;;;;;;;;;5116762;28;20897;-76
2023/04/17 14:06:28;;;;;;;9.80;5.90;;;;;;;;;;5116520;28;20471;-76
2023/04/17 14:08:55;;;;;;;5.03;4.63;;;;;;;;;;5116572;28;20446;-76
2023/04/17 14:11:23;;;;;;;6.67;5.20;;;;;;;;;;5116296;28;20954;-76
2023/04/17 14:13:50;;;;;;;6.47;5.87;;;;;;;;;;5116201;27;20544;-76
2023/04/17 14:16:17;;;;;;;6.50;5.90;;;;;;;;;;5116407;28;20449;-76
2023/04/17 14:18:47;;;;;;;6.07;5.53;;;;;;;;;;5116461;28;20481;-76
2023/04/17 14:21:16;;;;;;;5.47;4.93;;;;;;;;;;5116270;28;20506;-76
2023/04/17 14:23:43;;;;;;;6.60;5.90;;;;;;;;;;5116095;28;20460;-76
2023/04/17 14:26:10;;;;;;;6.10;5.50;;;;;;;;;;5116038;28;20455;-76
2023/04/17 14:28:37;;;;;;;5.50;5.00;;;;;;;;;;5115713;28;20448;-76
2023/04/17 14:31:04;;;;;;;5.67;4.80;;;;;;;;;;5115764;28;20457;-76
2023/04/17 14:33:31;;;;;;;6.03;5.43;;;;;;;;;;5115462;28;20537;-76
2023/04/17 14:35:59;;;;;;;6.30;5.70;;;;;;;;;;5116031;28;20465;-76
2023/04/17 14:38:27;;;;;;;5.37;4.87;;;;;;;;;;5116083;28;21054;-76
2023/04/17 14:40:54;;;;;;;6.03;5.43;;;;;;;;;;5116003;28;20476;-77
2023/04/17 14:43:21;;;;;;;6.83;6.10;;;;;;;;;;5115803;27;20476;-77